sensor_id;sensor_type;location;lat;lon;timestamp;pressure;altitude;pressure_sealevel;temperature;humidity
36726;BME280;44936;52.086;5.150;2024-02-21T00:01:34;102929.22;;;10.39;100.00
36726;BME280;44936;52.086;5.150;2024-02-21T00:03:59;102924.75;;;10.36;100.00
36726;BME280;44936;52.086;5.150;2024-02-21T00:06:24;102911.88;;;10.20;100.00
36726;BME280;44936;52.086;5.150;2024-02-21T00:08:51;102917.38;;;10.26;100.00
36726;BME280;44936;52.086;5.150;2024-02-21T00:11:16;102906.34;;;10.12;100.00
36726;BME280;44936;52.086;5.150;2024-02-21T00:13:41;102897.69;;;10.15;100.00
36726;BME280;44936;52.086;5.150;2024-02-21T00:16:07;102898.56;;;10.15;100.00
36726;BME280;44936;52.086;5.150;2024-02-21T00:18:32;102896.94;;;10.41;100.00
36726;BME280;44936;52.086;5.150;2024-02-21T00:20:57;102885.28;;;10.33;100.00
36726;BME280;44936;52.086;5.150;2024-02-21T00:23:23;102891.88;;;10.22;100.00
36726;BME280;44936;52.086;5.150;2024-02-21T00:25:48;102889.59;;;10.31;100.00
36726;BME280;44936;52.086;5.150;2024-02-21T00:28:13;102886.34;;;10.38;100.00
36726;BME280;44936;52.086;5.150;2024-02-21T00:30:39;102879.69;;;10.24;100.00
36726;BME280;44936;52.086;5.150;2024-02-21T00:33:04;102847.06;;;10.16;100.00
36726;BME280;44936;52.086;5.150;2024-02-21T00:35:30;102889.88;;;10.39;100.00
36726;BME280;44936;52.086;5.150;2024-02-21T00:37:55;102892.44;;;10.37;100.00
36726;BME280;44936;52.086;5.150;2024-02-21T00:40:22;102868.19;;;10.20;100.00
36726;BME280;44936;52.086;5.150;2024-02-21T00:42:48;102888.97;;;10.38;100.00
36726;BME280;44936;52.086;5.150;2024-02-21T00:45:13;102865.09;;;10.31;100.00
36726;BME280;44936;52.086;5.150;2024-02-21T00:47:39;102885.47;;;10.15;100.00
36726;BME280;44936;52.086;5.150;2024-02-21T00:50:05;102898.47;;;10.12;100.00
36726;BME280;44936;52.086;5.150;2024-02-21T00:52:32;102895.00;;;10.13;100.00
36726;BME280;44936;52.086;5.150;2024-02-21T00:54:57;102906.44;;;10.15;100.00
36726;BME280;44936;52.086;5.150;2024-02-21T00:57:22;102909.13;;;10.39;100.00
36726;BME280;44936;52.086;5.150;2024-02-21T00:59:49;102896.63;;;10.32;100.00
36726;BME280;44936;52.086;5.150;2024-02-21T01:02:14;102907.91;;;10.30;100.00
36726;BME280;44936;52.086;5.150;2024-02-21T01:04:39;102911.88;;;10.20;100.00
36726;BME280;44936;52.086;5.150;2024-02-21T01:07:05;102907.66;;;10.24;100.00
36726;BME280;44936;52.086;5.150;2024-02-21T01:09:30;102907.22;;;10.13;100.00
36726;BME280;44936;52.086;5.150;2024-02-21T01:11:55;102910.38;;;10.25;100.00
36726;BME280;44936;52.086;5.150;2024-02-21T01:14:20;102909.72;;;10.32;100.00
36726;BME280;44936;52.086;5.150;2024-02-21T01:16:46;102893.78;;;10.26;100.00
36726;BME280;44936;52.086;5.150;2024-02-21T01:19:11;102902.94;;;10.15;100.00
36726;BME280;44936;52.086;5.150;2024-02-21T01:21:36;102877.66;;;10.39;100.00
36726;BME280;44936;52.086;5.150;2024-02-21T01:24:02;102894.31;;;10.41;100.00
36726;BME280;44936;52.086;5.150;2024-02-21T01:26:27;102886.25;;;10.35;100.00
36726;BME280;44936;52.086;5.150;2024-02-21T01:28:52;102881.06;;;10.37;100.00
36726;BME280;44936;52.086;5.150;2024-02-21T01:31:18;102853.66;;;10.29;100.00
36726;BME280;44936;52.086;5.150;2024-02-21T01:33:43;102867.47;;;10.48;100.00
36726;BME280;44936;52.086;5.150;2024-02-21T01:36:08;102860.22;;;10.41;100.00
36726;BME280;44936;52.086;5.150;2024-02-21T01:38:34;102849.19;;;10.26;100.00
36726;BME280;44936;52.086;5.150;2024-02-21T01:41:00;102865.69;;;10.47;100.00
36726;BME280;44936;52.086;5.150;2024-02-21T01:43:25;102847.63;;;10.31;100.00
36726;BME280;44936;52.086;5.150;2024-02-21T01:45:53;102850.09;;;10.27;100.00
36726;BME280;44936;52.086;5.150;2024-02-21T01:48:19;102840.59;;;10.30;100.00
36726;BME280;44936;52.086;5.150;2024-02-21T01:50:45;102854.53;;;10.29;100.00
36726;BME280;44936;52.086;5.150;2024-02-21T01:53:17;102841.53;;;10.32;100.00
36726;BME280;44936;52.086;5.150;2024-02-21T01:55:45;102839.88;;;10.60;100.00
36726;BME280;44936;52.086;5.150;2024-02-21T01:58:12;102837.34;;;10.37;100.00
36726;BME280;44936;52.086;5.150;2024-02-21T02:00:40;102847.50;;;10.52;100.00
36726;BME280;44936;52.086;5.150;2024-02-21T02:03:07;102835.81;;;10.42;100.00
36726;BME280;44936;52.086;5.150;2024-02-21T02:05:35;102834.44;;;10.54;100.00
36726;BME280;44936;52.086;5.150;2024-02-21T02:08:01;102828.63;;;10.38;100.00
36726;BME280;44936;52.086;5.150;2024-02-21T02:10:26;102823.44;;;10.40;100.00
36726;BME280;44936;52.086;5.150;2024-02-21T02:12:52;102820.72;;;10.37;100.00
36726;BME280;44936;52.086;5.150;2024-02-21T02:15:17;102815.38;;;10.34;100.00
36726;BME280;44936;52.086;5.150;2024-02-21T02:17:42;102815.75;;;10.44;100.00
36726;BME280;44936;52.086;5.150;2024-02-21T02:20:08;102804.16;;;10.38;100.00
36726;BME280;44936;52.086;5.150;2024-02-21T02:22:36;102800.84;;;10.43;100.00
36726;BME280;44936;52.086;5.150;2024-02-21T02:25:03;102800.59;;;10.36;100.00
36726;BME280;44936;52.086;5.150;2024-02-21T02:27:29;102790.69;;;10.53;100.00
36726;BME280;44936;52.086;5.150;2024-02-21T02:29:54;102792.56;;;10.57;100.00
36726;BME280;44936;52.086;5.150;2024-02-21T02:32:20;102791.28;;;10.21;100.00
36726;BME280;44936;52.086;5.150;2024-02-21T02:34:45;102787.34;;;10.33;100.00
36726;BME280;44936;52.086;5.150;2024-02-21T02:37:10;102805.41;;;10.49;100.00
36726;BME280;44936;52.086;5.150;2024-02-21T02:39:35;102799.47;;;10.29;100.00
36726;BME280;44936;52.086;5.150;2024-02-21T02:42:01;102797.50;;;10.24;100.00
36726;BME280;44936;52.086;5.150;2024-02-21T02:44:27;102803.97;;;10.33;100.00
36726;BME280;44936;52.086;5.150;2024-02-21T02:46:52;102796.47;;;10.20;100.00
36726;BME280;44936;52.086;5.150;2024-02-21T02:49:17;102776.97;;;10.12;100.00
36726;BME280;44936;52.086;5.150;2024-02-21T02:51:43;102773.91;;;10.24;100.00
36726;BME280;44936;52.086;5.150;2024-02-21T02:54:09;102781.69;;;10.46;100.00
36726;BME280;44936;52.086;5.150;2024-02-21T02:56:34;102776.97;;;10.36;100.00
36726;BME280;44936;52.086;5.150;2024-02-21T02:58:59;102764.53;;;10.30;100.00
36726;BME280;44936;52.086;5.150;2024-02-21T03:01:25;102770.63;;;10.55;100.00
36726;BME280;44936;52.086;5.150;2024-02-21T03:03:50;102776.22;;;10.40;100.00
36726;BME280;44936;52.086;5.150;2024-02-21T03:06:15;102776.19;;;10.38;100.00
36726;BME280;44936;52.086;5.150;2024-02-21T03:08:41;102756.97;;;10.39;100.00
36726;BME280;44936;52.086;5.150;2024-02-21T03:11:06;102746.97;;;10.28;100.00
36726;BME280;44936;52.086;5.150;2024-02-21T03:13:31;102760.75;;;10.47;100.00
36726;BME280;44936;52.086;5.150;2024-02-21T03:15:57;102755.19;;;10.38;100.00
36726;BME280;44936;52.086;5.150;2024-02-21T03:18:22;102754.09;;;10.57;100.00
36726;BME280;44936;52.086;5.150;2024-02-21T03:20:47;102737.34;;;10.54;100.00
36726;BME280;44936;52.086;5.150;2024-02-21T03:23:13;102739.44;;;10.64;100.00
36726;BME280;44936;52.086;5.150;2024-02-21T03:25:38;102732.06;;;10.52;100.00
36726;BME280;44936;52.086;5.150;2024-02-21T03:28:04;102730.50;;;10.59;100.00
36726;BME280;44936;52.086;5.150;2024-02-21T03:30:29;102728.78;;;10.59;100.00
36726;BME280;44936;52.086;5.150;2024-02-21T03:32:54;102716.03;;;10.43;100.00
36726;BME280;44936;52.086;5.150;2024-02-21T03:35:20;102716.94;;;10.45;100.00
36726;BME280;44936;52.086;5.150;2024-02-21T03:37:45;102713.44;;;10.44;100.00
36726;BME280;44936;52.086;5.150;2024-02-21T03:40:11;102704.75;;;10.21;100.00
36726;BME280;44936;52.086;5.150;2024-02-21T03:42:37;102706.41;;;10.43;100.00
36726;BME280;44936;52.086;5.150;2024-02-21T03:45:03;102709.22;;;10.49;100.00
36726;BME280;44936;52.086;5.150;2024-02-21T03:47:28;102711.44;;;10.37;100.00
36726;BME280;44936;52.086;5.150;2024-02-21T03:49:54;102719.94;;;10.30;100.00
36726;BME280;44936;52.086;5.150;2024-02-21T03:52:19;102693.72;;;10.30;100.00
36726;BME280;44936;52.086;5.150;2024-02-21T03:54:44;102712.47;;;10.17;100.00
36726;BME280;44936;52.086;5.150;2024-02-21T03:57:10;102710.06;;;10.23;100.00
36726;BME280;44936;52.086;5.150;2024-02-21T03:59:35;102686.91;;;10.35;100.00
36726;BME280;44936;52.086;5.150;2024-02-21T04:02:00;102698.09;;;10.57;100.00
36726;BME280;44936;52.086;5.150;2024-02-21T04:04:26;102708.28;;;10.47;100.00
36726;BME280;44936;52.086;5.150;2024-02-21T04:06:51;102698.59;;;10.45;100.00
36726;BME280;44936;52.086;5.150;2024-02-21T04:09:17;102708.28;;;10.22;100.00
36726;BME280;44936;52.086;5.150;2024-02-21T04:11:42;102700.44;;;10.22;100.00
36726;BME280;44936;52.086;5.150;2024-02-21T04:14:08;102685.16;;;10.36;100.00
36726;BME280;44936;52.086;5.150;2024-02-21T04:16:34;102668.84;;;10.19;100.00
36726;BME280;44936;52.086;5.150;2024-02-21T04:19:00;102675.97;;;10.48;100.00
36726;BME280;44936;52.086;5.150;2024-02-21T04:21:27;102668.69;;;10.40;100.00
36726;BME280;44936;52.086;5.150;2024-02-21T04:23:52;102674.41;;;10.28;100.00
36726;BME280;44936;52.086;5.150;2024-02-21T04:26:18;102669.97;;;10.26;100.00
36726;BME280;44936;52.086;5.150;2024-02-21T04:28:45;102693.09;;;10.37;100.00
36726;BME280;44936;52.086;5.150;2024-02-21T04:31:10;102686.63;;;10.28;100.00
36726;BME280;44936;52.086;5.150;2024-02-21T04:33:36;102680.56;;;10.29;100.00
36726;BME280;44936;52.086;5.150;2024-02-21T04:36:01;102684.41;;;10.40;100.00
36726;BME280;44936;52.086;5.150;2024-02-21T04:38:27;102681.41;;;10.28;100.00
36726;BME280;44936;52.086;5.150;2024-02-21T04:40:54;102666.22;;;10.44;100.00
36726;BME280;44936;52.086;5.150;2024-02-21T04:43:19;102666.25;;;10.20;100.00
36726;BME280;44936;52.086;5.150;2024-02-21T04:45:45;102657.88;;;10.31;100.00
36726;BME280;44936;52.086;5.150;2024-02-21T04:48:10;102661.13;;;10.24;100.00
36726;BME280;44936;52.086;5.150;2024-02-21T04:50:35;102637.16;;;10.13;100.00
36726;BME280;44936;52.086;5.150;2024-02-21T04:53:01;102661.69;;;10.15;100.00
36726;BME280;44936;52.086;5.150;2024-02-21T04:55:26;102650.78;;;10.27;100.00
36726;BME280;44936;52.086;5.150;2024-02-21T04:57:51;102656.63;;;10.19;100.00
36726;BME280;44936;52.086;5.150;2024-02-21T05:00:17;102655.97;;;10.25;100.00
36726;BME280;44936;52.086;5.150;2024-02-21T05:02:42;102652.00;;;10.12;100.00
36726;BME280;44936;52.086;5.150;2024-02-21T05:05:08;102636.25;;;10.12;100.00
36726;BME280;44936;52.086;5.150;2024-02-21T05:07:34;102653.53;;;10.31;100.00
36726;BME280;44936;52.086;5.150;2024-02-21T05:10:00;102642.00;;;10.26;100.00
36726;BME280;44936;52.086;5.150;2024-02-21T05:12:25;102643.78;;;10.27;100.00
36726;BME280;44936;52.086;5.150;2024-02-21T05:14:51;102636.00;;;10.30;100.00
36726;BME280;44936;52.086;5.150;2024-02-21T05:17:16;102641.16;;;10.27;100.00
36726;BME280;44936;52.086;5.150;2024-02-21T05:19:42;102632.38;;;10.25;100.00
36726;BME280;44936;52.086;5.150;2024-02-21T05:22:07;102625.78;;;10.38;100.00
36726;BME280;44936;52.086;5.150;2024-02-21T05:24:32;102620.69;;;10.42;100.00
36726;BME280;44936;52.086;5.150;2024-02-21T05:26:58;102597.69;;;10.34;100.00
36726;BME280;44936;52.086;5.150;2024-02-21T05:29:23;102611.91;;;10.42;100.00
36726;BME280;44936;52.086;5.150;2024-02-21T05:34:17;102600.34;;;10.35;100.00
36726;BME280;44936;52.086;5.150;2024-02-21T05:36:43;102591.47;;;10.32;100.00
36726;BME280;44936;52.086;5.150;2024-02-21T05:39:08;102588.81;;;10.59;100.00
36726;BME280;44936;52.086;5.150;2024-02-21T05:41:33;102578.25;;;10.56;100.00
36726;BME280;44936;52.086;5.150;2024-02-21T05:43:59;102579.53;;;10.41;100.00
36726;BME280;44936;52.086;5.150;2024-02-21T05:46:24;102578.53;;;10.36;100.00
36726;BME280;44936;52.086;5.150;2024-02-21T05:48:49;102571.66;;;10.41;100.00
36726;BME280;44936;52.086;5.150;2024-02-21T05:51:15;102570.06;;;10.19;100.00
36726;BME280;44936;52.086;5.150;2024-02-21T05:53:40;102568.59;;;10.26;100.00
36726;BME280;44936;52.086;5.150;2024-02-21T05:56:10;102541.28;;;10.21;100.00
36726;BME280;44936;52.086;5.150;2024-02-21T05:58:36;102551.25;;;10.31;100.00
36726;BME280;44936;52.086;5.150;2024-02-21T06:01:02;102555.84;;;10.38;100.00
36726;BME280;44936;52.086;5.150;2024-02-21T06:03:28;102551.03;;;10.52;100.00
36726;BME280;44936;52.086;5.150;2024-02-21T06:05:54;102541.50;;;10.27;100.00
36726;BME280;44936;52.086;5.150;2024-02-21T06:08:19;102552.66;;;10.48;100.00
36726;BME280;44936;52.086;5.150;2024-02-21T06:10:45;102555.25;;;10.47;100.00
36726;BME280;44936;52.086;5.150;2024-02-21T06:13:10;102527.56;;;10.28;100.00
36726;BME280;44936;52.086;5.150;2024-02-21T06:15:36;102525.84;;;10.30;100.00
36726;BME280;44936;52.086;5.150;2024-02-21T06:18:01;102547.88;;;10.08;100.00
36726;BME280;44936;52.086;5.150;2024-02-21T06:20:26;102542.47;;;10.04;100.00
36726;BME280;44936;52.086;5.150;2024-02-21T06:22:52;102551.88;;;10.24;100.00
36726;BME280;44936;52.086;5.150;2024-02-21T06:25:18;102547.03;;;10.36;100.00
36726;BME280;44936;52.086;5.150;2024-02-21T06:27:43;102544.16;;;10.02;100.00
36726;BME280;44936;52.086;5.150;2024-02-21T06:30:09;102563.53;;;10.07;100.00
36726;BME280;44936;52.086;5.150;2024-02-21T06:32:34;102570.00;;;10.16;100.00
36726;BME280;44936;52.086;5.150;2024-02-21T06:34:59;102565.75;;;10.21;100.00
36726;BME280;44936;52.086;5.150;2024-02-21T06:37:27;102557.34;;;10.05;100.00
36726;BME280;44936;52.086;5.150;2024-02-21T06:39:52;102565.13;;;10.02;100.00
36726;BME280;44936;52.086;5.150;2024-02-21T06:42:17;102568.28;;;10.18;100.00
36726;BME280;44936;52.086;5.150;2024-02-21T06:44:44;102562.63;;;10.06;100.00
36726;BME280;44936;52.086;5.150;2024-02-21T06:47:09;102539.34;;;10.15;100.00
36726;BME280;44936;52.086;5.150;2024-02-21T06:49:34;102558.28;;;10.07;100.00
36726;BME280;44936;52.086;5.150;2024-02-21T06:52:00;102565.13;;;10.02;100.00
36726;BME280;44936;52.086;5.150;2024-02-21T06:54:25;102555.56;;;10.29;100.00
36726;BME280;44936;52.086;5.150;2024-02-21T06:56:50;102541.69;;;10.33;100.00
36726;BME280;44936;52.086;5.150;2024-02-21T06:59:16;102504.00;;;10.03;100.00
36726;BME280;44936;52.086;5.150;2024-02-21T07:01:53;102542.38;;;10.01;100.00
36726;BME280;44936;52.086;5.150;2024-02-21T07:04:18;102501.31;;;10.01;100.00
36726;BME280;44936;52.086;5.150;2024-02-21T07:06:45;102540.25;;;10.16;100.00
36726;BME280;44936;52.086;5.150;2024-02-21T07:09:10;102522.22;;;10.25;100.00
36726;BME280;44936;52.086;5.150;2024-02-21T07:11:36;102528.16;;;10.21;100.00
36726;BME280;44936;52.086;5.150;2024-02-21T07:14:01;102524.88;;;10.27;100.00
36726;BME280;44936;52.086;5.150;2024-02-21T07:16:26;102521.25;;;10.23;100.00
36726;BME280;44936;52.086;5.150;2024-02-21T07:18:53;102516.75;;;10.19;100.00
36726;BME280;44936;52.086;5.150;2024-02-21T07:21:18;102525.78;;;10.27;100.00
36726;BME280;44936;52.086;5.150;2024-02-21T07:23:44;102507.13;;;10.46;100.00
36726;BME280;44936;52.086;5.150;2024-02-21T07:26:09;102499.44;;;10.24;100.00
36726;BME280;44936;52.086;5.150;2024-02-21T07:28:34;102508.91;;;10.47;100.00
36726;BME280;44936;52.086;5.150;2024-02-21T07:31:00;102503.19;;;10.32;100.00
36726;BME280;44936;52.086;5.150;2024-02-21T07:33:25;102497.97;;;10.07;100.00
36726;BME280;44936;52.086;5.150;2024-02-21T07:35:51;102487.81;;;10.16;100.00
36726;BME280;44936;52.086;5.150;2024-02-21T07:38:16;102477.09;;;10.37;100.00
36726;BME280;44936;52.086;5.150;2024-02-21T07:40:44;102482.03;;;9.99;100.00
36726;BME280;44936;52.086;5.150;2024-02-21T07:43:10;102471.94;;;10.11;100.00
36726;BME280;44936;52.086;5.150;2024-02-21T07:45:35;102465.91;;;10.15;100.00
36726;BME280;44936;52.086;5.150;2024-02-21T07:48:01;102466.59;;;10.35;100.00
36726;BME280;44936;52.086;5.150;2024-02-21T07:50:26;102446.88;;;10.21;100.00
36726;BME280;44936;52.086;5.150;2024-02-21T07:52:52;102439.47;;;10.35;100.00
36726;BME280;44936;52.086;5.150;2024-02-21T07:55:17;102443.13;;;10.41;100.00
36726;BME280;44936;52.086;5.150;2024-02-21T07:57:42;102442.59;;;10.52;100.00
36726;BME280;44936;52.086;5.150;2024-02-21T08:00:08;102445.41;;;10.59;100.00
36726;BME280;44936;52.086;5.150;2024-02-21T08:02:35;102437.00;;;10.41;100.00
36726;BME280;44936;52.086;5.150;2024-02-21T08:05:00;102440.69;;;10.47;100.00
36726;BME280;44936;52.086;5.150;2024-02-21T08:07:26;102441.03;;;10.60;100.00
36726;BME280;44936;52.086;5.150;2024-02-21T08:09:54;102425.03;;;10.50;100.00
36726;BME280;44936;52.086;5.150;2024-02-21T08:12:19;102435.25;;;10.71;100.00
36726;BME280;44936;52.086;5.150;2024-02-21T08:14:44;102429.81;;;10.34;100.00
36726;BME280;44936;52.086;5.150;2024-02-21T08:17:09;102435.53;;;10.50;100.00
36726;BME280;44936;52.086;5.150;2024-02-21T08:19:35;102416.97;;;10.43;100.00
36726;BME280;44936;52.086;5.150;2024-02-21T08:22:00;102426.00;;;10.53;100.00
36726;BME280;44936;52.086;5.150;2024-02-21T08:24:25;102397.50;;;10.35;100.00
36726;BME280;44936;52.086;5.150;2024-02-21T08:26:51;102400.63;;;10.53;100.00
36726;BME280;44936;52.086;5.150;2024-02-21T08:29:16;102411.56;;;10.38;100.00
36726;BME280;44936;52.086;5.150;2024-02-21T08:31:41;102404.16;;;10.54;100.00
36726;BME280;44936;52.086;5.150;2024-02-21T08:34:07;102405.25;;;10.62;100.00
36726;BME280;44936;52.086;5.150;2024-02-21T08:36:33;102398.38;;;10.67;100.00
36726;BME280;44936;52.086;5.150;2024-02-21T08:39:00;102398.75;;;10.49;100.00
36726;BME280;44936;52.086;5.150;2024-02-21T08:41:25;102389.66;;;10.68;100.00
36726;BME280;44936;52.086;5.150;2024-02-21T08:43:52;102387.78;;;10.32;100.00
36726;BME280;44936;52.086;5.150;2024-02-21T08:46:19;102378.25;;;10.66;100.00
36726;BME280;44936;52.086;5.150;2024-02-21T08:48:44;102375.25;;;10.52;100.00
36726;BME280;44936;52.086;5.150;2024-02-21T08:51:13;102372.63;;;10.52;100.00
36726;BME280;44936;52.086;5.150;2024-02-21T08:53:39;102351.50;;;10.47;100.00
36726;BME280;44936;52.086;5.150;2024-02-21T08:56:05;102357.69;;;10.49;100.00
36726;BME280;44936;52.086;5.150;2024-02-21T08:58:30;102364.88;;;10.57;100.00
36726;BME280;44936;52.086;5.150;2024-02-21T09:00:56;102328.06;;;10.54;100.00
36726;BME280;44936;52.086;5.150;2024-02-21T09:03:22;102352.75;;;10.60;100.00
36726;BME280;44936;52.086;5.150;2024-02-21T09:05:47;102327.63;;;10.70;100.00
36726;BME280;44936;52.086;5.150;2024-02-21T09:08:12;102334.88;;;10.80;100.00
36726;BME280;44936;52.086;5.150;2024-02-21T09:10:39;102348.13;;;10.52;100.00
36726;BME280;44936;52.086;5.150;2024-02-21T09:13:05;102322.69;;;10.82;100.00
36726;BME280;44936;52.086;5.150;2024-02-21T09:15:31;102333.03;;;10.76;100.00
36726;BME280;44936;52.086;5.150;2024-02-21T09:17:57;102337.47;;;10.45;100.00
36726;BME280;44936;52.086;5.150;2024-02-21T09:20:22;102330.97;;;10.97;100.00
36726;BME280;44936;52.086;5.150;2024-02-21T09:22:47;102318.69;;;10.96;100.00
36726;BME280;44936;52.086;5.150;2024-02-21T09:25:13;102272.09;;;10.53;100.00
36726;BME280;44936;52.086;5.150;2024-02-21T09:27:39;102303.94;;;11.03;100.00
36726;BME280;44936;52.086;5.150;2024-02-21T09:30:05;102295.41;;;11.12;100.00
36726;BME280;44936;52.086;5.150;2024-02-21T09:32:31;102282.41;;;11.16;100.00
36726;BME280;44936;52.086;5.150;2024-02-21T09:34:58;102276.53;;;11.28;100.00
36726;BME280;44936;52.086;5.150;2024-02-21T09:37:23;102259.22;;;10.98;100.00
36726;BME280;44936;52.086;5.150;2024-02-21T09:39:49;102274.09;;;11.35;100.00
36726;BME280;44936;52.086;5.150;2024-02-21T09:42:20;102249.03;;;11.12;100.00
36726;BME280;44936;52.086;5.150;2024-02-21T09:44:46;102259.19;;;11.34;100.00
36726;BME280;44936;52.086;5.150;2024-02-21T09:47:34;102246.56;;;11.57;100.00
36726;BME280;44936;52.086;5.150;2024-02-21T09:50:04;102232.84;;;11.31;100.00
36726;BME280;44936;52.086;5.150;2024-02-21T09:52:30;102217.84;;;11.67;100.00
36726;BME280;44936;52.086;5.150;2024-02-21T09:54:58;102203.34;;;11.85;100.00
36726;BME280;44936;52.086;5.150;2024-02-21T09:57:23;102172.31;;;11.68;100.00
36726;BME280;44936;52.086;5.150;2024-02-21T09:59:50;102193.38;;;11.71;100.00
36726;BME280;44936;52.086;5.150;2024-02-21T10:02:16;102168.31;;;11.85;100.00
36726;BME280;44936;52.086;5.150;2024-02-21T10:04:41;102163.06;;;11.86;100.00
36726;BME280;44936;52.086;5.150;2024-02-21T10:07:07;102152.91;;;11.61;100.00
36726;BME280;44936;52.086;5.150;2024-02-21T10:09:33;102163.94;;;11.87;100.00
36726;BME280;44936;52.086;5.150;2024-02-21T10:12:11;102157.13;;;11.98;100.00
36726;BME280;44936;52.086;5.150;2024-02-21T10:14:37;102138.00;;;12.05;100.00
36726;BME280;44936;52.086;5.150;2024-02-21T10:17:03;102133.50;;;12.01;100.00
36726;BME280;44936;52.086;5.150;2024-02-21T10:19:30;102117.69;;;11.98;100.00
36726;BME280;44936;52.086;5.150;2024-02-21T10:24:27;102122.00;;;11.93;100.00
36726;BME280;44936;52.086;5.150;2024-02-21T10:27:03;102123.09;;;12.07;100.00
36726;BME280;44936;52.086;5.150;2024-02-21T10:29:30;102101.97;;;12.01;100.00
36726;BME280;44936;52.086;5.150;2024-02-21T10:32:14;102098.59;;;12.10;100.00
36726;BME280;44936;52.086;5.150;2024-02-21T10:34:41;102095.97;;;12.10;100.00
36726;BME280;44936;52.086;5.150;2024-02-21T10:37:10;102081.34;;;11.76;100.00
36726;BME280;44936;52.086;5.150;2024-02-21T10:39:41;102076.00;;;11.73;100.00
36726;BME280;44936;52.086;5.150;2024-02-21T10:42:06;102072.09;;;11.98;100.00
36726;BME280;44936;52.086;5.150;2024-02-21T10:44:37;102049.41;;;12.03;100.00
36726;BME280;44936;52.086;5.150;2024-02-21T10:47:07;102026.84;;;12.18;100.00
36726;BME280;44936;52.086;5.150;2024-02-21T10:49:44;101999.97;;;12.38;100.00
36726;BME280;44936;52.086;5.150;2024-02-21T10:55:04;102007.94;;;12.45;100.00
36726;BME280;44936;52.086;5.150;2024-02-21T10:57:32;101990.34;;;12.40;100.00
36726;BME280;44936;52.086;5.150;2024-02-21T10:59:58;102051.50;;;12.24;100.00
36726;BME280;44936;52.086;5.150;2024-02-21T11:02:26;102062.31;;;11.89;100.00
36726;BME280;44936;52.086;5.150;2024-02-21T11:04:54;102058.53;;;11.75;100.00
36726;BME280;44936;52.086;5.150;2024-02-21T11:07:20;102077.63;;;11.64;100.00
36726;BME280;44936;52.086;5.150;2024-02-21T11:09:52;102063.22;;;11.44;100.00
36726;BME280;44936;52.086;5.150;2024-02-21T11:12:21;102084.06;;;11.80;100.00
36726;BME280;44936;52.086;5.150;2024-02-21T11:14:46;102052.84;;;11.50;100.00
36726;BME280;44936;52.086;5.150;2024-02-21T11:17:16;102062.53;;;11.53;100.00
36726;BME280;44936;52.086;5.150;2024-02-21T11:19:42;102083.66;;;11.59;100.00
36726;BME280;44936;52.086;5.150;2024-02-21T11:22:17;102081.09;;;11.17;100.00
36726;BME280;44936;52.086;5.150;2024-02-21T11:24:43;102086.59;;;11.30;100.00
36726;BME280;44936;52.086;5.150;2024-02-21T11:27:13;102059.09;;;11.12;100.00
36726;BME280;44936;52.086;5.150;2024-02-21T11:29:43;102080.09;;;11.12;100.00
36726;BME280;44936;52.086;5.150;2024-02-21T11:32:10;102065.19;;;11.11;100.00
36726;BME280;44936;52.086;5.150;2024-02-21T11:34:36;102046.94;;;11.17;100.00
36726;BME280;44936;52.086;5.150;2024-02-21T11:37:01;102049.59;;;10.76;100.00
36726;BME280;44936;52.086;5.150;2024-02-21T11:39:27;102022.31;;;11.10;100.00
36726;BME280;44936;52.086;5.150;2024-02-21T11:42:06;102020.53;;;11.56;100.00
36726;BME280;44936;52.086;5.150;2024-02-21T11:44:36;102001.09;;;11.48;100.00
36726;BME280;44936;52.086;5.150;2024-02-21T11:47:06;101991.03;;;11.74;100.00
36726;BME280;44936;52.086;5.150;2024-02-21T11:49:37;101976.44;;;11.89;100.00
36726;BME280;44936;52.086;5.150;2024-02-21T11:52:04;101940.75;;;12.05;100.00
36726;BME280;44936;52.086;5.150;2024-02-21T11:54:30;101933.03;;;12.17;100.00
36726;BME280;44936;52.086;5.150;2024-02-21T11:56:56;101917.38;;;12.27;100.00
36726;BME280;44936;52.086;5.150;2024-02-21T11:59:21;101877.00;;;12.23;100.00
36726;BME280;44936;52.086;5.150;2024-02-21T12:01:47;101901.97;;;12.57;100.00
36726;BME280;44936;52.086;5.150;2024-02-21T12:04:13;101893.00;;;12.40;100.00
36726;BME280;44936;52.086;5.150;2024-02-21T12:06:39;101885.31;;;12.57;100.00
36726;BME280;44936;52.086;5.150;2024-02-21T12:09:07;101873.72;;;12.41;100.00
36726;BME280;44936;52.086;5.150;2024-02-21T12:11:34;101851.97;;;12.56;100.00
36726;BME280;44936;52.086;5.150;2024-02-21T12:14:00;101866.47;;;13.00;100.00
36726;BME280;44936;52.086;5.150;2024-02-21T12:16:30;101845.31;;;12.90;100.00
36726;BME280;44936;52.086;5.150;2024-02-21T12:18:57;101847.97;;;12.96;100.00
36726;BME280;44936;52.086;5.150;2024-02-21T12:21:40;101827.50;;;12.66;100.00
36726;BME280;44936;52.086;5.150;2024-02-21T12:24:17;101825.44;;;12.37;100.00
36726;BME280;44936;52.086;5.150;2024-02-21T12:26:42;101822.00;;;12.44;100.00
36726;BME280;44936;52.086;5.150;2024-02-21T12:29:08;101825.41;;;12.36;100.00
36726;BME280;44936;52.086;5.150;2024-02-21T12:31:39;101797.59;;;12.56;100.00
36726;BME280;44936;52.086;5.150;2024-02-21T12:34:05;101808.47;;;12.96;100.00
36726;BME280;44936;52.086;5.150;2024-02-21T12:36:35;101766.91;;;12.61;100.00
36726;BME280;44936;52.086;5.150;2024-02-21T12:39:01;101767.72;;;12.54;100.00
36726;BME280;44936;52.086;5.150;2024-02-21T12:41:29;101773.03;;;12.57;100.00
36726;BME280;44936;52.086;5.150;2024-02-21T12:43:55;101767.59;;;12.42;100.00